Archival Weather

Republic

Farmingdale, New York (KFRG)

Report from: Thursday, January 25, 2024 9:53 AM EST
Current time: Friday, June 21, 2024 9:20 PM EDT

Current weather – Weather history – Daily summaries
Weather forecast

Present weatherMist
Temperature11.1°C (52.0°F)
Dew point10.6°C (51.1°F)
Winds 3 kts (1.5 m/s, 3.5 mph) West (270°)
Visibility3960 ft. (1.2 km)
Clouds Few clouds 500 ft. (152 m)
Ceiling: Overcast 1,000 ft. (305 m)
Altimeter30.14 in.Hg (1021 mB)
Relative humidity97 %
Density altitude-537 ft. (-164 m)
Sea-level pressure102.1 kPa (1021 mB, 30.14 in.Hg)
Remarks Automated weather observing station with precipitation discriminator
Pressure rising more quickly
Flight conditions Low Instrument Meteorological Conditions
Raw dataKFRG 251453Z 27003KT 3/4SM BR FEW005 OVC010 11/11 A3014 RMK AO2 SLP207 T01110106 53001
An error has occurred. This application may no longer respond until reloaded. Reload 🗙